createdAt,value
2017-09-12T00:02:26.285Z,2.50
2017-09-12T00:04:53.743Z,2.03
2017-09-12T00:07:21.210Z,2.33
2017-09-12T00:09:49.450Z,2.37
2017-09-12T00:12:16.918Z,2.47
2017-09-12T00:14:44.401Z,2.33
2017-09-12T00:17:11.851Z,2.50
2017-09-12T00:19:39.334Z,3.00
2017-09-12T00:22:06.811Z,2.73
2017-09-12T00:24:34.264Z,1.90
2017-09-12T00:27:02.128Z,2.50
2017-09-12T00:29:29.583Z,2.10
2017-09-12T00:31:57.087Z,2.03
2017-09-12T00:34:25.328Z,2.67
2017-09-12T00:36:52.795Z,3.30
2017-09-12T00:39:20.275Z,2.40
2017-09-12T00:41:47.755Z,2.50
2017-09-12T00:44:15.987Z,2.90
2017-09-12T00:46:43.449Z,2.67
2017-09-12T00:49:10.927Z,2.60
2017-09-12T00:51:38.383Z,2.97
2017-09-12T00:54:05.847Z,2.67
2017-09-12T00:56:34.099Z,2.73
2017-09-12T00:59:01.579Z,2.37
2017-09-12T01:01:29.835Z,2.30
2017-09-12T01:03:57.295Z,2.33
2017-09-12T01:06:24.759Z,2.27
2017-09-12T01:08:52.218Z,2.10
2017-09-12T01:11:20.458Z,2.60
2017-09-12T01:13:47.936Z,2.40
2017-09-12T01:16:15.403Z,2.80
2017-09-12T01:18:42.883Z,2.40
2017-09-12T01:21:10.351Z,2.47
2017-09-12T01:23:37.810Z,2.77
2017-09-12T01:26:05.287Z,2.30
2017-09-12T01:28:33.760Z,2.97
2017-09-12T01:31:01.239Z,2.10
2017-09-12T01:33:28.695Z,2.43
2017-09-12T01:35:56.186Z,2.53
2017-09-12T01:38:24.408Z,2.77
2017-09-12T01:40:51.869Z,2.87
2017-09-12T01:43:19.344Z,2.07
2017-09-12T01:45:46.810Z,3.37
2017-09-12T01:48:14.296Z,2.80
2017-09-12T01:50:42.515Z,1.80
2017-09-12T01:53:09.979Z,2.47
2017-09-12T01:55:37.464Z,1.83
2017-09-12T01:58:04.928Z,2.17
2017-09-12T02:00:32.382Z,2.50
2017-09-12T02:02:59.871Z,2.07
2017-09-12T02:05:27.332Z,2.40
2017-09-12T02:07:54.826Z,2.87
2017-09-12T02:10:22.279Z,2.83
2017-09-12T02:12:49.759Z,2.23
2017-09-12T02:15:17.235Z,2.30
2017-09-12T02:17:45.451Z,1.80
2017-09-12T02:20:12.923Z,1.50
2017-09-12T02:22:40.395Z,1.90
2017-09-12T02:25:07.859Z,2.20
2017-09-12T02:27:35.327Z,1.80
2017-09-12T02:30:03.573Z,1.67
2017-09-12T02:32:31.038Z,2.30
2017-09-12T02:34:58.510Z,2.63
2017-09-12T02:37:25.980Z,2.00
2017-09-12T02:39:54.225Z,1.93
2017-09-12T02:42:21.675Z,3.10
2017-09-12T02:44:50.664Z,2.00
2017-09-12T02:47:18.141Z,1.93
2017-09-12T02:49:45.627Z,1.63
2017-09-12T02:52:13.088Z,1.60
2017-09-12T02:54:40.548Z,1.80
2017-09-12T02:57:08.031Z,1.70
2017-09-12T02:59:35.488Z,1.90
2017-09-12T03:02:02.964Z,1.60
2017-09-12T03:04:30.421Z,1.73
2017-09-12T03:06:57.909Z,1.60
2017-09-12T03:09:26.125Z,1.47
2017-09-12T03:11:53.587Z,1.20
2017-09-12T03:14:21.054Z,1.40
2017-09-12T03:16:48.519Z,1.30
2017-09-12T03:19:15.997Z,1.30
2017-09-12T03:21:43.497Z,1.50
2017-09-12T03:24:10.970Z,1.90
2017-09-12T03:26:38.447Z,1.93
2017-09-12T03:29:05.906Z,2.17
2017-09-12T03:31:33.388Z,1.83
2017-09-12T03:34:02.620Z,2.10
2017-09-12T03:36:30.111Z,2.70
2017-09-12T03:38:57.563Z,2.30
2017-09-12T03:41:25.028Z,3.27
2017-09-12T03:43:52.524Z,2.93
2017-09-12T03:46:20.744Z,3.27
2017-09-12T03:48:48.203Z,3.57
2017-09-12T03:51:15.691Z,3.80
2017-09-12T03:53:43.143Z,3.80
2017-09-12T03:56:10.649Z,3.47
2017-09-12T03:58:38.119Z,4.50
2017-09-12T04:01:05.595Z,3.70
2017-09-12T04:03:33.056Z,4.83
2017-09-12T04:06:00.539Z,4.50
2017-09-12T04:08:28.818Z,4.77
2017-09-12T04:10:57.048Z,4.80
2017-09-12T04:13:24.540Z,4.90
2017-09-12T04:15:52.788Z,4.80
2017-09-12T04:18:20.275Z,5.07
2017-09-12T04:20:48.494Z,5.20
2017-09-12T04:23:15.976Z,5.30
2017-09-12T04:25:43.440Z,4.80
2017-09-12T04:28:10.936Z,4.80
2017-09-12T04:30:39.163Z,4.77
2017-09-12T04:33:06.620Z,4.90
2017-09-12T04:35:34.099Z,6.10
2017-09-12T04:38:01.561Z,5.80
2017-09-12T04:40:29.807Z,5.40
2017-09-12T04:42:57.275Z,6.07
2017-09-12T04:45:25.508Z,6.23
2017-09-12T04:47:52.989Z,5.70
2017-09-12T04:50:20.452Z,7.00
2017-09-12T04:52:47.931Z,6.40
2017-09-12T04:55:15.403Z,6.63
2017-09-12T04:57:43.644Z,5.87
2017-09-12T05:00:11.104Z,6.83
2017-09-12T05:02:38.577Z,7.10
2017-09-12T05:05:06.064Z,7.70
2017-09-12T05:07:33.531Z,7.30
2017-09-12T05:10:01.014Z,7.67
2017-09-12T05:12:28.488Z,8.23
2017-09-12T05:14:55.958Z,7.90
2017-09-12T05:17:23.431Z,8.13
2017-09-12T05:19:51.663Z,8.97
2017-09-12T05:22:19.144Z,8.67
2017-09-12T05:24:46.613Z,9.33
2017-09-12T05:27:14.857Z,10.30
2017-09-12T05:29:42.320Z,10.00
2017-09-12T05:32:09.820Z,11.57
2017-09-12T05:34:37.288Z,10.17
2017-09-12T05:37:04.754Z,10.10
2017-09-12T05:39:32.322Z,11.13
2017-09-12T05:41:59.776Z,10.77
2017-09-12T05:44:27.263Z,10.80
2017-09-12T05:46:54.739Z,9.77
2017-09-12T05:49:22.995Z,11.03
2017-09-12T05:51:50.459Z,10.07
2017-09-12T05:54:17.939Z,9.57
2017-09-12T05:56:46.163Z,8.87
2017-09-12T05:59:13.626Z,9.20
2017-09-12T06:01:41.111Z,10.33
2017-09-12T06:04:08.587Z,10.40
2017-09-12T06:06:36.838Z,10.33
2017-09-12T06:09:04.302Z,9.67
2017-09-12T06:11:32.543Z,9.40
2017-09-12T06:14:00.003Z,8.93
2017-09-12T06:16:27.476Z,9.30
2017-09-12T06:18:55.710Z,8.03
2017-09-12T06:21:23.188Z,8.33
2017-09-12T06:23:50.655Z,7.03
2017-09-12T06:26:18.112Z,8.43
2017-09-12T06:28:45.597Z,6.63
2017-09-12T06:31:13.831Z,7.63
2017-09-12T06:33:41.292Z,7.10
2017-09-12T06:36:08.783Z,6.73
2017-09-12T06:38:37.027Z,7.07
2017-09-12T06:41:04.498Z,7.17
2017-09-12T06:43:31.963Z,6.53
2017-09-12T06:46:00.193Z,6.67
2017-09-12T06:48:27.701Z,8.40
2017-09-12T06:50:56.071Z,6.30
2017-09-12T06:53:23.560Z,6.27
2017-09-12T06:55:51.026Z,6.37
2017-09-12T06:58:18.514Z,6.00
2017-09-12T07:00:45.978Z,6.03
2017-09-12T07:03:13.439Z,5.77
2017-09-12T07:05:40.926Z,6.43
2017-09-12T07:08:09.154Z,6.30
2017-09-12T07:10:36.631Z,6.57
2017-09-12T07:13:04.099Z,6.50
2017-09-12T07:15:31.566Z,6.83
2017-09-12T07:17:59.804Z,6.80
2017-09-12T07:20:27.275Z,7.20
2017-09-12T07:22:54.747Z,7.40
2017-09-12T07:25:22.971Z,7.77
2017-09-12T07:27:50.447Z,6.73
2017-09-12T07:30:17.919Z,6.23
2017-09-12T07:32:45.405Z,6.63
2017-09-12T07:35:13.647Z,5.57
2017-09-12T07:37:41.252Z,6.93
2017-09-12T07:40:08.716Z,6.33
2017-09-12T07:42:36.203Z,7.20
2017-09-12T07:45:03.679Z,5.93
2017-09-12T07:47:31.150Z,6.60
2017-09-12T07:49:59.391Z,6.47
2017-09-12T07:52:26.860Z,5.90
2017-09-12T07:54:54.335Z,5.83
2017-09-12T07:57:21.811Z,6.00
2017-09-12T07:59:50.044Z,6.20
2017-09-12T08:02:17.537Z,6.40
2017-09-12T08:04:45.768Z,6.03
2017-09-12T08:07:13.235Z,5.70
2017-09-12T08:09:41.483Z,6.03
2017-09-12T08:12:08.943Z,6.60
2017-09-12T08:14:36.424Z,4.93
2017-09-12T08:17:03.891Z,5.13
2017-09-12T08:19:31.372Z,5.23
2017-09-12T08:21:59.611Z,4.33
2017-09-12T08:24:27.087Z,4.63
2017-09-12T08:26:54.563Z,4.47
2017-09-12T08:29:22.035Z,5.23
2017-09-12T08:31:49.509Z,5.10
2017-09-12T08:34:16.991Z,4.53
2017-09-12T08:36:44.455Z,5.20
2017-09-12T08:39:11.972Z,4.73
2017-09-12T08:41:39.486Z,4.63
2017-09-12T08:44:06.935Z,4.50
2017-09-12T08:46:34.396Z,5.17
2017-09-12T08:49:01.892Z,4.50
2017-09-12T08:51:29.352Z,4.83
2017-09-12T08:53:56.819Z,5.10
2017-09-12T08:56:24.313Z,5.60
2017-09-12T08:58:52.556Z,4.57
2017-09-12T09:01:20.027Z,4.03
2017-09-12T09:03:47.491Z,4.30
2017-09-12T09:06:14.971Z,4.77
2017-09-12T09:08:43.223Z,5.03
2017-09-12T09:11:10.704Z,5.10
2017-09-12T09:13:38.955Z,5.37
2017-09-12T09:16:06.420Z,4.20
2017-09-12T09:18:33.884Z,4.70
2017-09-12T09:21:01.360Z,4.03
2017-09-12T09:23:29.587Z,4.83
2017-09-12T09:25:57.151Z,5.67
2017-09-12T09:28:24.676Z,4.80
2017-09-12T09:30:52.157Z,5.00
2017-09-12T09:33:19.606Z,5.37
2017-09-12T09:35:47.066Z,4.10
2017-09-12T09:38:14.552Z,4.00
2017-09-12T09:40:42.061Z,4.70
2017-09-12T09:43:09.521Z,4.60
2017-09-12T09:45:37.003Z,4.40
2017-09-12T09:48:04.464Z,3.63
2017-09-12T09:50:31.956Z,4.30
2017-09-12T09:53:00.176Z,5.10
2017-09-12T09:55:27.655Z,3.97
2017-09-12T09:57:55.139Z,4.00
2017-09-12T10:00:23.384Z,2.93
2017-09-12T10:02:50.852Z,3.20
2017-09-12T10:05:18.315Z,4.40
2017-09-12T10:07:45.788Z,3.07
2017-09-12T10:10:14.012Z,3.10
2017-09-12T10:12:41.520Z,3.53
2017-09-12T10:15:09.745Z,3.00
2017-09-12T10:17:37.204Z,2.87
2017-09-12T10:20:04.688Z,2.30
2017-09-12T10:22:32.139Z,3.03
2017-09-12T10:24:59.610Z,3.00
2017-09-12T10:27:27.103Z,3.27
2017-09-12T10:29:54.568Z,3.10
2017-09-12T10:32:22.045Z,3.30
2017-09-12T10:34:49.508Z,3.10
2017-09-12T10:37:16.989Z,3.13
2017-09-12T10:39:45.973Z,3.00
2017-09-12T10:42:13.435Z,2.80
2017-09-12T10:44:40.918Z,2.50
2017-09-12T10:47:09.148Z,3.57
2017-09-12T10:49:36.623Z,2.73
2017-09-12T10:52:04.095Z,2.83
2017-09-12T10:54:32.334Z,2.90
2017-09-12T10:56:59.823Z,2.57
2017-09-12T10:59:27.280Z,3.27
2017-09-12T11:01:55.528Z,3.33
2017-09-12T11:04:22.978Z,3.00
2017-09-12T11:06:50.469Z,3.27
2017-09-12T11:09:18.706Z,3.17
2017-09-12T11:11:46.180Z,3.50
2017-09-12T11:14:14.419Z,3.50
2017-09-12T11:16:41.880Z,2.90
2017-09-12T11:19:09.352Z,3.80
2017-09-12T11:21:36.819Z,4.20
2017-09-12T11:24:04.298Z,4.50
2017-09-12T11:26:32.535Z,3.90
2017-09-12T11:29:00.065Z,4.10
2017-09-12T11:31:27.548Z,3.57
2017-09-12T11:33:55.005Z,3.87
2017-09-12T11:36:22.584Z,4.07
2017-09-12T11:38:50.997Z,4.70
2017-09-12T11:41:18.480Z,4.47
2017-09-12T11:43:45.976Z,4.70
2017-09-12T11:46:13.446Z,3.17
2017-09-12T11:48:40.914Z,2.23
2017-09-12T11:51:09.159Z,2.13
2017-09-12T11:53:36.639Z,1.90
2017-09-12T11:56:04.883Z,1.97
2017-09-12T11:58:32.360Z,2.13
2017-09-12T12:00:59.854Z,2.23
2017-09-12T12:03:27.303Z,2.90
2017-09-12T12:05:54.778Z,2.77
2017-09-12T12:08:22.247Z,3.20
2017-09-12T12:10:49.732Z,2.93
2017-09-12T12:13:17.249Z,2.67
2017-09-12T12:15:44.699Z,2.30
2017-09-12T12:18:12.175Z,3.33
2017-09-12T12:20:39.651Z,3.50
2017-09-12T12:23:07.140Z,3.60
2017-09-12T12:25:35.407Z,3.40
2017-09-12T12:28:02.891Z,2.97
2017-09-12T12:30:30.350Z,2.60
2017-09-12T12:32:57.808Z,2.70
2017-09-12T12:35:25.283Z,1.97
2017-09-12T12:37:52.731Z,2.00
2017-09-12T12:40:20.223Z,1.73
2017-09-12T12:42:47.687Z,2.07
2017-09-12T12:45:15.155Z,1.30
2017-09-12T12:47:43.408Z,1.50
2017-09-12T12:50:10.867Z,1.40
2017-09-12T12:52:38.339Z,2.43
2017-09-12T12:55:05.874Z,1.40
2017-09-12T12:57:33.341Z,1.37
2017-09-12T13:00:00.811Z,1.73
2017-09-12T13:02:28.287Z,1.10
2017-09-12T13:04:56.516Z,1.30
2017-09-12T13:07:23.995Z,1.87
2017-09-12T13:09:51.483Z,1.90
2017-09-12T13:12:19.716Z,2.83
2017-09-12T13:14:47.175Z,2.70
2017-09-12T13:17:14.659Z,2.50
2017-09-12T13:19:42.914Z,2.60
2017-09-12T13:22:10.391Z,2.20
2017-09-12T13:24:38.632Z,2.80
2017-09-12T13:27:06.088Z,2.50
2017-09-12T13:29:33.572Z,2.17
2017-09-12T13:32:01.792Z,2.00
2017-09-12T13:34:29.267Z,1.60
2017-09-12T13:36:56.738Z,1.40
2017-09-12T13:39:24.212Z,1.50
2017-09-12T13:41:51.667Z,2.13
2017-09-12T13:44:19.127Z,1.50
2017-09-12T13:46:47.360Z,1.90
2017-09-12T13:49:14.817Z,2.27
2017-09-12T13:51:42.301Z,1.50
2017-09-12T13:54:09.908Z,1.77
2017-09-12T13:56:37.373Z,2.00
2017-09-12T13:59:04.930Z,1.93
2017-09-12T14:01:32.387Z,1.80
2017-09-12T14:03:59.847Z,2.00
2017-09-12T14:06:27.326Z,2.17
2017-09-12T14:08:54.799Z,1.70
2017-09-12T14:11:22.311Z,1.73
2017-09-12T14:13:49.771Z,1.87
2017-09-12T14:16:17.240Z,2.40
2017-09-12T14:18:44.715Z,2.00
2017-09-12T14:21:12.188Z,1.70
2017-09-12T14:23:39.676Z,1.93
2017-09-12T14:26:07.155Z,1.87
2017-09-12T14:28:34.694Z,1.83
2017-09-12T14:31:02.908Z,2.30
2017-09-12T14:33:30.374Z,2.40
2017-09-12T14:35:57.848Z,2.00
2017-09-12T14:38:25.308Z,2.27
2017-09-12T14:40:52.787Z,2.10
2017-09-12T14:43:21.035Z,1.73
2017-09-12T14:45:48.514Z,2.23
2017-09-12T14:48:16.731Z,2.40
2017-09-12T14:50:44.243Z,1.80
2017-09-12T14:53:12.479Z,1.93
2017-09-12T14:55:39.951Z,1.57
2017-09-12T14:58:07.427Z,1.73
2017-09-12T15:00:35.655Z,1.93
2017-09-12T15:03:03.181Z,1.90
2017-09-12T15:05:30.681Z,1.93
2017-09-12T15:07:58.179Z,1.70
2017-09-12T15:10:26.403Z,2.00
2017-09-12T15:12:53.865Z,2.30
2017-09-12T15:15:21.341Z,2.00
2017-09-12T15:17:48.799Z,2.07
2017-09-12T15:20:16.289Z,2.07
2017-09-12T15:22:43.764Z,1.77
2017-09-12T15:25:11.230Z,1.90
2017-09-12T15:27:38.720Z,2.20
2017-09-12T15:30:06.188Z,1.90
2017-09-12T15:32:33.667Z,1.67
2017-09-12T15:35:01.925Z,1.80
2017-09-12T15:37:29.386Z,1.70
2017-09-12T15:39:57.643Z,1.60
2017-09-12T15:42:25.112Z,1.63
2017-09-12T15:44:52.590Z,1.60
2017-09-12T15:47:20.830Z,1.80
2017-09-12T15:49:48.316Z,1.93
2017-09-12T15:52:16.539Z,2.13
2017-09-12T15:54:44.019Z,2.50
2017-09-12T15:57:11.485Z,1.63
2017-09-12T15:59:38.946Z,1.90
2017-09-12T16:02:07.195Z,1.50
2017-09-12T16:04:34.664Z,1.70
2017-09-12T16:07:02.128Z,1.53
2017-09-12T16:09:29.591Z,1.80
2017-09-12T16:11:57.847Z,1.80
2017-09-12T16:14:25.340Z,2.03
2017-09-12T16:16:53.572Z,1.80
2017-09-12T16:19:21.063Z,2.33
2017-09-12T16:21:49.303Z,1.93
2017-09-12T16:24:16.771Z,1.67
2017-09-12T16:26:44.255Z,1.77
2017-09-12T16:29:12.504Z,1.93
2017-09-12T16:31:39.979Z,1.90
2017-09-12T16:34:08.219Z,2.20
2017-09-12T16:36:35.698Z,2.30
2017-09-12T16:39:03.171Z,2.10
2017-09-12T16:41:31.400Z,1.93
2017-09-12T16:43:58.891Z,2.07
2017-09-12T16:46:27.133Z,2.57
2017-09-12T16:48:54.612Z,1.87
2017-09-12T16:51:22.095Z,1.90
2017-09-12T16:53:50.348Z,2.03
2017-09-12T16:56:17.807Z,2.20
2017-09-12T16:58:45.284Z,2.40
2017-09-12T17:01:12.752Z,2.33
2017-09-12T17:03:40.228Z,2.57
2017-09-12T17:06:07.707Z,1.70
2017-09-12T17:08:35.194Z,2.10
2017-09-12T17:11:02.670Z,2.50
2017-09-12T17:13:30.130Z,2.37
2017-09-12T17:15:57.706Z,2.17
2017-09-12T17:18:25.180Z,2.60
2017-09-12T17:20:52.666Z,2.27
2017-09-12T17:23:20.151Z,2.30
2017-09-12T17:25:48.385Z,2.10
2017-09-12T17:28:15.849Z,2.00
2017-09-12T17:30:43.333Z,2.63
2017-09-12T17:33:11.661Z,2.37
2017-09-12T17:35:39.507Z,1.97
2017-09-12T17:38:07.219Z,2.60
2017-09-12T17:40:35.853Z,2.33
2017-09-12T17:43:03.720Z,2.03
2017-09-12T17:45:31.689Z,2.40
2017-09-12T17:47:59.661Z,2.13
2017-09-12T17:50:27.211Z,2.87
2017-09-12T17:52:55.289Z,2.20
2017-09-12T17:55:22.871Z,2.50
2017-09-12T17:57:50.942Z,3.00
2017-09-12T18:00:19.244Z,3.77
2017-09-12T18:02:47.163Z,2.90
2017-09-12T18:05:15.665Z,2.37
2017-09-12T18:07:43.309Z,2.20
2017-09-12T18:10:10.871Z,2.03
2017-09-12T18:12:38.373Z,1.97
2017-09-12T18:15:05.893Z,2.20
2017-09-12T18:17:33.457Z,2.10
2017-09-12T18:20:01.091Z,2.10
2017-09-12T18:22:28.735Z,2.00
2017-09-12T18:24:56.305Z,1.90
2017-09-12T18:27:23.800Z,2.03
2017-09-12T18:29:51.341Z,2.40
2017-09-12T18:32:19.016Z,1.60
2017-09-12T18:34:46.488Z,2.10
2017-09-12T18:37:14.042Z,1.87
2017-09-12T18:39:41.576Z,1.80
2017-09-12T18:42:09.111Z,2.27
2017-09-12T18:44:37.097Z,1.93
2017-09-12T18:47:04.718Z,2.43
2017-09-12T18:49:32.991Z,2.53
2017-09-12T18:52:00.591Z,2.70
2017-09-12T18:54:28.130Z,2.30
2017-09-12T18:56:55.926Z,2.73
2017-09-12T18:59:23.530Z,2.30
2017-09-12T19:01:51.046Z,2.63
2017-09-12T19:04:19.476Z,2.50
2017-09-12T19:06:47.090Z,2.93
2017-09-12T19:09:14.783Z,2.40
2017-09-12T19:11:43.084Z,2.50
2017-09-12T19:14:10.759Z,2.50
2017-09-12T19:16:38.427Z,2.80
2017-09-12T19:19:06.854Z,2.60
2017-09-12T19:21:34.484Z,2.33
2017-09-12T19:24:02.797Z,2.57
2017-09-12T19:26:31.109Z,2.23
2017-09-12T19:28:58.632Z,2.60
2017-09-12T19:31:26.903Z,2.60
2017-09-12T19:33:54.463Z,2.20
2017-09-12T19:36:22.703Z,2.20
2017-09-12T19:38:50.181Z,2.00
2017-09-12T19:41:17.660Z,2.60
2017-09-12T19:43:45.968Z,1.97
2017-09-12T19:46:13.442Z,2.17
2017-09-12T19:48:40.900Z,2.20
2017-09-12T19:51:08.375Z,1.83
2017-09-12T19:53:35.859Z,2.00
2017-09-12T19:56:04.131Z,1.90
2017-09-12T19:58:32.380Z,1.90
2017-09-12T20:01:01.545Z,1.67
2017-09-12T20:03:29.029Z,1.80
2017-09-12T20:05:56.491Z,2.50
2017-09-12T20:08:23.983Z,2.50
2017-09-12T20:10:52.223Z,2.10
2017-09-12T20:13:19.733Z,2.40
2017-09-12T20:15:47.204Z,2.10
2017-09-12T20:18:14.675Z,2.13
2017-09-12T20:20:42.180Z,3.30
2017-09-12T20:23:10.403Z,2.40
2017-09-12T20:25:37.892Z,3.13
2017-09-12T20:28:05.384Z,2.13
2017-09-12T20:30:33.671Z,2.40
2017-09-12T20:33:01.253Z,2.70
2017-09-12T20:35:28.719Z,2.20
2017-09-12T20:37:56.199Z,2.37
2017-09-12T20:40:23.660Z,2.50
2017-09-12T20:42:51.143Z,2.30
2017-09-12T20:45:19.372Z,2.40
2017-09-12T20:47:46.842Z,2.23
2017-09-12T20:50:14.365Z,2.90
2017-09-12T20:52:41.827Z,2.00
2017-09-12T20:55:09.304Z,2.20
2017-09-12T20:57:36.772Z,2.50
2017-09-12T21:00:04.255Z,2.83
2017-09-12T21:02:31.743Z,2.60
2017-09-12T21:04:59.210Z,2.03
2017-09-12T21:07:26.716Z,2.40
2017-09-12T21:09:55.026Z,2.67
2017-09-12T21:12:22.520Z,2.97
2017-09-12T21:14:51.295Z,2.40
2017-09-12T21:17:18.826Z,2.10
2017-09-12T21:19:46.303Z,2.60
2017-09-12T21:22:13.791Z,2.07
2017-09-12T21:24:41.276Z,2.83
2017-09-12T21:27:08.735Z,2.13
2017-09-12T21:29:36.223Z,2.10
2017-09-12T21:32:03.687Z,2.10
2017-09-12T21:34:31.175Z,2.10
2017-09-12T21:36:58.655Z,2.30
2017-09-12T21:39:26.892Z,1.80
2017-09-12T21:41:54.359Z,2.10
2017-09-12T21:44:21.835Z,2.33
2017-09-12T21:46:50.068Z,2.73
2017-09-12T21:49:17.543Z,2.00
2017-09-12T21:51:44.999Z,1.70
2017-09-12T21:54:12.480Z,2.30
2017-09-12T21:56:40.715Z,1.77
2017-09-12T21:59:08.204Z,2.00
2017-09-12T22:01:36.426Z,1.80
2017-09-12T22:04:03.900Z,2.00
2017-09-12T22:06:31.378Z,2.17
2017-09-12T22:08:59.607Z,2.53
2017-09-12T22:11:27.087Z,1.90
2017-09-12T22:13:54.551Z,1.90
2017-09-12T22:16:22.027Z,1.70
2017-09-12T22:18:50.258Z,2.43
2017-09-12T22:21:17.733Z,2.30
2017-09-12T22:23:45.215Z,2.03
2017-09-12T22:26:12.668Z,2.10
2017-09-12T22:28:40.128Z,2.17
2017-09-12T22:31:09.111Z,2.33
2017-09-12T22:33:36.568Z,1.70
2017-09-12T22:36:04.048Z,2.13
2017-09-12T22:38:32.291Z,2.33
2017-09-12T22:40:59.756Z,1.93
2017-09-12T22:43:27.987Z,2.00
2017-09-12T22:45:55.458Z,1.90
2017-09-12T22:48:22.938Z,2.33
2017-09-12T22:50:50.391Z,2.50
2017-09-12T22:53:19.378Z,2.30
2017-09-12T22:55:46.842Z,2.40
2017-09-12T22:58:14.325Z,2.30
2017-09-12T23:00:42.570Z,2.23
2017-09-12T23:03:10.031Z,2.67
2017-09-12T23:05:38.251Z,2.20
2017-09-12T23:08:05.732Z,2.23
2017-09-12T23:10:33.206Z,1.90
2017-09-12T23:13:00.667Z,2.07
2017-09-12T23:15:28.132Z,2.67
2017-09-12T23:17:55.612Z,2.87
2017-09-12T23:20:23.857Z,1.97
2017-09-12T23:22:51.319Z,2.03
2017-09-12T23:25:18.787Z,1.60
2017-09-12T23:27:46.242Z,1.90
2017-09-12T23:30:14.403Z,2.20
2017-09-12T23:32:41.863Z,2.40
2017-09-12T23:35:09.323Z,2.10
2017-09-12T23:37:36.807Z,2.23
2017-09-12T23:40:05.031Z,1.90
2017-09-12T23:42:32.513Z,1.70
2017-09-12T23:44:59.971Z,1.90
2017-09-12T23:47:27.423Z,2.47
2017-09-12T23:49:54.903Z,1.83
2017-09-12T23:52:23.141Z,1.87
2017-09-12T23:54:50.604Z,2.30
2017-09-12T23:57:18.086Z,1.90
2017-09-12T23:59:46.500Z,1.90
